sensor_id;sensor_type;location;lat;lon;timestamp;temperature;humidity
31003;DHT22;23051;-6.372;106.786;2023-08-20T00:00:52;27.60;69.40
31003;DHT22;23051;-6.372;106.786;2023-08-20T00:02:58;27.60;69.40
31003;DHT22;23051;-6.372;106.786;2023-08-20T00:05:00;27.60;69.30
31003;DHT22;23051;-6.372;106.786;2023-08-20T00:07:05;27.70;69.30
31003;DHT22;23051;-6.372;106.786;2023-08-20T00:09:10;27.70;69.20
31003;DHT22;23051;-6.372;106.786;2023-08-20T00:11:11;27.70;69.10
31003;DHT22;23051;-6.372;106.786;2023-08-20T00:13:13;27.70;69.10
31003;DHT22;23051;-6.372;106.786;2023-08-20T00:15:14;27.80;69.10
31003;DHT22;23051;-6.372;106.786;2023-08-20T00:17:20;27.70;69.00
31003;DHT22;23051;-6.372;106.786;2023-08-20T00:19:21;27.80;69.00
31003;DHT22;23051;-6.372;106.786;2023-08-20T00:21:26;27.80;69.00
31003;DHT22;23051;-6.372;106.786;2023-08-20T00:23:28;27.80;68.90
31003;DHT22;23051;-6.372;106.786;2023-08-20T00:25:32;27.80;68.90
31003;DHT22;23051;-6.372;106.786;2023-08-20T00:27:36;27.80;68.80
31003;DHT22;23051;-6.372;106.786;2023-08-20T00:29:39;27.90;68.80
31003;DHT22;23051;-6.372;106.786;2023-08-20T00:31:40;27.90;68.80
31003;DHT22;23051;-6.372;106.786;2023-08-20T00:33:44;27.90;68.70
31003;DHT22;23051;-6.372;106.786;2023-08-20T00:35:45;28.00;68.70
31003;DHT22;23051;-6.372;106.786;2023-08-20T00:37:53;28.00;68.60
31003;DHT22;23051;-6.372;106.786;2023-08-20T00:39:58;28.10;68.60
31003;DHT22;23051;-6.372;106.786;2023-08-20T00:42:02;28.00;68.40
31003;DHT22;23051;-6.372;106.786;2023-08-20T00:44:03;28.10;68.40
31003;DHT22;23051;-6.372;106.786;2023-08-20T00:46:04;28.10;69.20
31003;DHT22;23051;-6.372;106.786;2023-08-20T00:48:06;28.10;68.30
31003;DHT22;23051;-6.372;106.786;2023-08-20T00:50:10;28.20;68.30
31003;DHT22;23051;-6.372;106.786;2023-08-20T00:52:14;28.20;68.20
31003;DHT22;23051;-6.372;106.786;2023-08-20T00:54:17;28.20;68.10
31003;DHT22;23051;-6.372;106.786;2023-08-20T00:56:18;28.30;68.10
31003;DHT22;23051;-6.372;106.786;2023-08-20T00:58:19;28.30;68.10
31003;DHT22;23051;-6.372;106.786;2023-08-20T01:00:23;28.40;68.10
31003;DHT22;23051;-6.372;106.786;2023-08-20T01:02:24;28.40;67.90
31003;DHT22;23051;-6.372;106.786;2023-08-20T01:04:26;28.50;67.90
31003;DHT22;23051;-6.372;106.786;2023-08-20T01:08:37;28.50;67.70
31003;DHT22;23051;-6.372;106.786;2023-08-20T01:10:42;28.50;67.70
31003;DHT22;23051;-6.372;106.786;2023-08-20T01:12:45;28.60;67.70
31003;DHT22;23051;-6.372;106.786;2023-08-20T01:14:46;28.60;67.60
31003;DHT22;23051;-6.372;106.786;2023-08-20T01:16:48;28.70;67.60
31003;DHT22;23051;-6.372;106.786;2023-08-20T01:18:49;28.70;67.50
31003;DHT22;23051;-6.372;106.786;2023-08-20T01:20:52;28.70;67.40
31003;DHT22;23051;-6.372;106.786;2023-08-20T01:29:35;28.90;67.20
31003;DHT22;23051;-6.372;106.786;2023-08-20T01:31:37;29.00;67.20
31003;DHT22;23051;-6.372;106.786;2023-08-20T01:33:38;29.00;67.10
31003;DHT22;23051;-6.372;106.786;2023-08-20T01:35:40;29.00;67.00
31003;DHT22;23051;-6.372;106.786;2023-08-20T01:37:41;29.00;66.90
31003;DHT22;23051;-6.372;106.786;2023-08-20T01:39:42;29.10;67.00
31003;DHT22;23051;-6.372;106.786;2023-08-20T01:41:44;29.10;66.90
31003;DHT22;23051;-6.372;106.786;2023-08-20T01:44:03;29.10;66.80
31003;DHT22;23051;-6.372;106.786;2023-08-20T01:46:07;29.20;66.80
31003;DHT22;23051;-6.372;106.786;2023-08-20T01:48:10;29.30;66.70
31003;DHT22;23051;-6.372;106.786;2023-08-20T01:50:11;29.30;66.60
31003;DHT22;23051;-6.372;106.786;2023-08-20T01:52:15;29.40;66.60
31003;DHT22;23051;-6.372;106.786;2023-08-20T01:54:16;29.40;66.60
31003;DHT22;23051;-6.372;106.786;2023-08-20T01:56:20;29.40;66.50
31003;DHT22;23051;-6.372;106.786;2023-08-20T01:58:21;29.40;66.40
31003;DHT22;23051;-6.372;106.786;2023-08-20T02:00:22;29.50;66.40
31003;DHT22;23051;-6.372;106.786;2023-08-20T02:04:27;29.60;66.30
31003;DHT22;23051;-6.372;106.786;2023-08-20T02:06:34;29.60;66.20
31003;DHT22;23051;-6.372;106.786;2023-08-20T02:08:35;29.70;66.20
31003;DHT22;23051;-6.372;106.786;2023-08-20T02:10:39;29.70;66.10
31003;DHT22;23051;-6.372;106.786;2023-08-20T02:12:40;29.70;66.10
31003;DHT22;23051;-6.372;106.786;2023-08-20T02:14:42;29.70;66.10
31003;DHT22;23051;-6.372;106.786;2023-08-20T02:16:43;29.80;66.00
31003;DHT22;23051;-6.372;106.786;2023-08-20T02:18:44;29.90;66.00
31003;DHT22;23051;-6.372;106.786;2023-08-20T02:20:45;29.90;65.90
31003;DHT22;23051;-6.372;106.786;2023-08-20T02:22:46;30.00;65.80
31003;DHT22;23051;-6.372;106.786;2023-08-20T02:24:47;30.00;65.80
31003;DHT22;23051;-6.372;106.786;2023-08-20T02:26:49;30.00;65.60
31003;DHT22;23051;-6.372;106.786;2023-08-20T02:28:50;30.10;65.60
31003;DHT22;23051;-6.372;106.786;2023-08-20T02:30:51;30.20;65.60
31003;DHT22;23051;-6.372;106.786;2023-08-20T02:32:58;30.20;65.50
31003;DHT22;23051;-6.372;106.786;2023-08-20T02:34:59;30.30;65.40
31003;DHT22;23051;-6.372;106.786;2023-08-20T02:37:02;30.30;65.40
31003;DHT22;23051;-6.372;106.786;2023-08-20T02:39:04;30.40;65.40
31003;DHT22;23051;-6.372;106.786;2023-08-20T02:41:08;30.40;65.30
31003;DHT22;23051;-6.372;106.786;2023-08-20T02:43:09;30.40;65.20
31003;DHT22;23051;-6.372;106.786;2023-08-20T02:45:10;30.40;65.20
31003;DHT22;23051;-6.372;106.786;2023-08-20T02:47:31;30.50;65.20
31003;DHT22;23051;-6.372;106.786;2023-08-20T02:49:33;30.50;65.10
31003;DHT22;23051;-6.372;106.786;2023-08-20T02:51:34;30.50;65.10
31003;DHT22;23051;-6.372;106.786;2023-08-20T02:53:35;30.50;65.00
31003;DHT22;23051;-6.372;106.786;2023-08-20T02:55:36;30.60;65.00
31003;DHT22;23051;-6.372;106.786;2023-08-20T02:57:38;30.60;65.00
31003;DHT22;23051;-6.372;106.786;2023-08-20T02:59:44;30.70;65.00
31003;DHT22;23051;-6.372;106.786;2023-08-20T03:01:45;30.70;64.90
31003;DHT22;23051;-6.372;106.786;2023-08-20T03:03:46;30.80;64.90
31003;DHT22;23051;-6.372;106.786;2023-08-20T03:05:48;30.80;64.70
31003;DHT22;23051;-6.372;106.786;2023-08-20T03:07:49;31.00;64.70
31003;DHT22;23051;-6.372;106.786;2023-08-20T03:09:50;31.00;64.50
31003;DHT22;23051;-6.372;106.786;2023-08-20T03:11:54;31.00;64.40
31003;DHT22;23051;-6.372;106.786;2023-08-20T03:13:55;31.10;64.40
31003;DHT22;23051;-6.372;106.786;2023-08-20T03:15:56;31.20;64.40
31003;DHT22;23051;-6.372;106.786;2023-08-20T03:17:57;31.20;64.30
31003;DHT22;23051;-6.372;106.786;2023-08-20T03:19:59;31.30;64.20
31003;DHT22;23051;-6.372;106.786;2023-08-20T03:22:04;31.30;64.20
31003;DHT22;23051;-6.372;106.786;2023-08-20T03:24:05;31.30;64.10
31003;DHT22;23051;-6.372;106.786;2023-08-20T03:26:07;31.40;64.10
31003;DHT22;23051;-6.372;106.786;2023-08-20T03:28:08;31.40;63.90
31003;DHT22;23051;-6.372;106.786;2023-08-20T03:30:09;31.50;63.90
31003;DHT22;23051;-6.372;106.786;2023-08-20T03:32:10;31.60;63.90
31003;DHT22;23051;-6.372;106.786;2023-08-20T03:34:11;31.60;63.70
31003;DHT22;23051;-6.372;106.786;2023-08-20T03:36:15;31.70;63.60
31003;DHT22;23051;-6.372;106.786;2023-08-20T03:38:16;31.80;63.50
31003;DHT22;23051;-6.372;106.786;2023-08-20T03:40:19;31.80;63.40
31003;DHT22;23051;-6.372;106.786;2023-08-20T03:42:20;31.90;63.30
31003;DHT22;23051;-6.372;106.786;2023-08-20T03:46:22;32.00;63.10
31003;DHT22;23051;-6.372;106.786;2023-08-20T03:48:24;32.10;63.00
31003;DHT22;23051;-6.372;106.786;2023-08-20T03:50:25;32.20;63.00
31003;DHT22;23051;-6.372;106.786;2023-08-20T03:52:26;32.30;62.90
31003;DHT22;23051;-6.372;106.786;2023-08-20T03:54:28;32.40;62.80
31003;DHT22;23051;-6.372;106.786;2023-08-20T03:56:32;32.40;62.60
31003;DHT22;23051;-6.372;106.786;2023-08-20T03:58:33;32.50;62.60
31003;DHT22;23051;-6.372;106.786;2023-08-20T04:00:35;32.50;62.40
31003;DHT22;23051;-6.372;106.786;2023-08-20T04:02:36;32.50;62.40
31003;DHT22;23051;-6.372;106.786;2023-08-20T04:04:40;32.50;62.50
31003;DHT22;23051;-6.372;106.786;2023-08-20T04:06:41;32.50;62.60
31003;DHT22;23051;-6.372;106.786;2023-08-20T04:08:42;32.60;62.60
31003;DHT22;23051;-6.372;106.786;2023-08-20T04:10:44;32.60;62.50
31003;DHT22;23051;-6.372;106.786;2023-08-20T04:12:44;32.70;62.50
31003;DHT22;23051;-6.372;106.786;2023-08-20T04:17:12;32.80;62.30
31003;DHT22;23051;-6.372;106.786;2023-08-20T04:19:16;32.90;62.20
31003;DHT22;23051;-6.372;106.786;2023-08-20T04:21:17;32.90;62.10
31003;DHT22;23051;-6.372;106.786;2023-08-20T04:23:19;32.90;61.90
31003;DHT22;23051;-6.372;106.786;2023-08-20T04:25:26;33.00;61.90
31003;DHT22;23051;-6.372;106.786;2023-08-20T04:27:27;33.10;61.90
31003;DHT22;23051;-6.372;106.786;2023-08-20T04:29:28;33.10;61.90
31003;DHT22;23051;-6.372;106.786;2023-08-20T04:31:32;33.00;61.90
31003;DHT22;23051;-6.372;106.786;2023-08-20T04:33:33;33.10;62.10
31003;DHT22;23051;-6.372;106.786;2023-08-20T04:35:35;33.10;62.10
31003;DHT22;23051;-6.372;106.786;2023-08-20T04:37:36;33.10;62.10
31003;DHT22;23051;-6.372;106.786;2023-08-20T04:39:40;33.10;62.00
31003;DHT22;23051;-6.372;106.786;2023-08-20T04:41:41;33.20;62.00
31003;DHT22;23051;-6.372;106.786;2023-08-20T04:43:42;33.20;61.90
31003;DHT22;23051;-6.372;106.786;2023-08-20T04:45:43;33.30;61.80
31003;DHT22;23051;-6.372;106.786;2023-08-20T04:47:45;33.30;61.80
31003;DHT22;23051;-6.372;106.786;2023-08-20T04:49:46;33.40;61.70
31003;DHT22;23051;-6.372;106.786;2023-08-20T04:51:47;33.50;61.70
31003;DHT22;23051;-6.372;106.786;2023-08-20T04:53:48;33.50;61.50
31003;DHT22;23051;-6.372;106.786;2023-08-20T04:55:49;33.60;61.50
31003;DHT22;23051;-6.372;106.786;2023-08-20T04:57:50;33.60;61.30
31003;DHT22;23051;-6.372;106.786;2023-08-20T05:01:52;33.70;61.30
31003;DHT22;23051;-6.372;106.786;2023-08-20T05:05:54;33.90;61.20
31003;DHT22;23051;-6.372;106.786;2023-08-20T05:07:56;33.90;61.10
31003;DHT22;23051;-6.372;106.786;2023-08-20T05:09:57;33.90;61.00
31003;DHT22;23051;-6.372;106.786;2023-08-20T05:11:58;34.00;60.90
31003;DHT22;23051;-6.372;106.786;2023-08-20T05:13:59;34.00;60.90
31003;DHT22;23051;-6.372;106.786;2023-08-20T05:16:00;34.00;60.90
31003;DHT22;23051;-6.372;106.786;2023-08-20T05:18:04;34.10;61.00
31003;DHT22;23051;-6.372;106.786;2023-08-20T05:20:05;34.10;60.80
31003;DHT22;23051;-6.372;106.786;2023-08-20T05:22:06;34.20;60.80
31003;DHT22;23051;-6.372;106.786;2023-08-20T05:24:08;34.30;60.70
31003;DHT22;23051;-6.372;106.786;2023-08-20T05:26:09;34.30;60.50
31003;DHT22;23051;-6.372;106.786;2023-08-20T05:28:11;34.40;60.60
31003;DHT22;23051;-6.372;106.786;2023-08-20T05:30:12;34.40;60.50
31003;DHT22;23051;-6.372;106.786;2023-08-20T05:32:13;34.40;60.40
31003;DHT22;23051;-6.372;106.786;2023-08-20T05:34:15;34.50;60.40
31003;DHT22;23051;-6.372;106.786;2023-08-20T05:36:16;34.50;60.40
31003;DHT22;23051;-6.372;106.786;2023-08-20T05:38:20;34.40;60.50
31003;DHT22;23051;-6.372;106.786;2023-08-20T05:40:21;34.40;60.60
31003;DHT22;23051;-6.372;106.786;2023-08-20T05:42:22;34.40;60.60
31003;DHT22;23051;-6.372;106.786;2023-08-20T05:44:23;34.50;60.60
31003;DHT22;23051;-6.372;106.786;2023-08-20T05:46:24;34.50;60.60
31003;DHT22;23051;-6.372;106.786;2023-08-20T05:48:34;34.60;60.50
31003;DHT22;23051;-6.372;106.786;2023-08-20T05:50:35;34.70;60.40
31003;DHT22;23051;-6.372;106.786;2023-08-20T05:52:36;34.80;60.20
31003;DHT22;23051;-6.372;106.786;2023-08-20T05:54:37;34.90;60.00
31003;DHT22;23051;-6.372;106.786;2023-08-20T05:56:38;35.00;59.80
31003;DHT22;23051;-6.372;106.786;2023-08-20T05:58:39;35.00;59.80
31003;DHT22;23051;-6.372;106.786;2023-08-20T06:00:40;35.00;59.80
31003;DHT22;23051;-6.372;106.786;2023-08-20T06:02:42;35.00;59.80
31003;DHT22;23051;-6.372;106.786;2023-08-20T06:04:43;35.10;59.70
31003;DHT22;23051;-6.372;106.786;2023-08-20T06:06:44;35.20;59.70
31003;DHT22;23051;-6.372;106.786;2023-08-20T06:08:45;35.30;59.60
31003;DHT22;23051;-6.372;106.786;2023-08-20T06:10:46;35.30;59.50
31003;DHT22;23051;-6.372;106.786;2023-08-20T06:12:48;35.40;59.40
31003;DHT22;23051;-6.372;106.786;2023-08-20T06:14:49;35.50;59.40
31003;DHT22;23051;-6.372;106.786;2023-08-20T06:16:50;35.50;59.30
31003;DHT22;23051;-6.372;106.786;2023-08-20T06:18:51;35.50;59.30
31003;DHT22;23051;-6.372;106.786;2023-08-20T06:20:52;35.50;59.30
31003;DHT22;23051;-6.372;106.786;2023-08-20T06:22:53;35.50;59.40
31003;DHT22;23051;-6.372;106.786;2023-08-20T06:24:55;35.40;59.40
31003;DHT22;23051;-6.372;106.786;2023-08-20T06:26:56;35.40;59.50
31003;DHT22;23051;-6.372;106.786;2023-08-20T06:28:57;35.30;59.60
31003;DHT22;23051;-6.372;106.786;2023-08-20T06:30:58;35.30;59.70
31003;DHT22;23051;-6.372;106.786;2023-08-20T06:33:00;35.30;59.90
31003;DHT22;23051;-6.372;106.786;2023-08-20T06:35:01;35.20;59.90
31003;DHT22;23051;-6.372;106.786;2023-08-20T06:37:02;35.20;60.00
31003;DHT22;23051;-6.372;106.786;2023-08-20T06:39:03;35.10;60.00
31003;DHT22;23051;-6.372;106.786;2023-08-20T06:41:07;35.00;60.20
31003;DHT22;23051;-6.372;106.786;2023-08-20T06:43:08;35.00;60.40
31003;DHT22;23051;-6.372;106.786;2023-08-20T06:45:12;35.00;60.50
31003;DHT22;23051;-6.372;106.786;2023-08-20T06:47:13;34.90;60.30
31003;DHT22;23051;-6.372;106.786;2023-08-20T06:49:15;35.00;60.50
31003;DHT22;23051;-6.372;106.786;2023-08-20T06:51:19;35.00;60.50
31003;DHT22;23051;-6.372;106.786;2023-08-20T06:53:20;35.00;60.30
31003;DHT22;23051;-6.372;106.786;2023-08-20T06:57:22;35.20;60.00
31003;DHT22;23051;-6.372;106.786;2023-08-20T06:59:23;35.40;59.80
31003;DHT22;23051;-6.372;106.786;2023-08-20T07:01:24;35.50;59.60
31003;DHT22;23051;-6.372;106.786;2023-08-20T07:03:25;35.70;59.40
31003;DHT22;23051;-6.372;106.786;2023-08-20T07:05:29;35.70;59.20
31003;DHT22;23051;-6.372;106.786;2023-08-20T07:07:30;35.90;59.10
31003;DHT22;23051;-6.372;106.786;2023-08-20T07:09:31;36.00;58.90
31003;DHT22;23051;-6.372;106.786;2023-08-20T07:11:32;36.20;58.80
31003;DHT22;23051;-6.372;106.786;2023-08-20T07:13:34;36.20;58.70
31003;DHT22;23051;-6.372;106.786;2023-08-20T07:15:35;36.20;58.60
31003;DHT22;23051;-6.372;106.786;2023-08-20T07:17:36;36.20;58.70
31003;DHT22;23051;-6.372;106.786;2023-08-20T07:19:41;36.20;58.80
31003;DHT22;23051;-6.372;106.786;2023-08-20T07:21:42;36.10;58.90
31003;DHT22;23051;-6.372;106.786;2023-08-20T07:23:43;36.00;59.10
31003;DHT22;23051;-6.372;106.786;2023-08-20T07:25:47;35.80;59.30
31003;DHT22;23051;-6.372;106.786;2023-08-20T07:27:52;35.70;59.50
31003;DHT22;23051;-6.372;106.786;2023-08-20T07:29:59;35.50;59.90
31003;DHT22;23051;-6.372;106.786;2023-08-20T07:32:00;35.30;60.30
31003;DHT22;23051;-6.372;106.786;2023-08-20T07:34:03;35.20;60.50
31003;DHT22;23051;-6.372;106.786;2023-08-20T07:36:08;35.10;60.80
31003;DHT22;23051;-6.372;106.786;2023-08-20T07:38:10;35.00;61.00
31003;DHT22;23051;-6.372;106.786;2023-08-20T07:40:11;34.90;61.20
31003;DHT22;23051;-6.372;106.786;2023-08-20T07:42:21;35.00;61.30
31003;DHT22;23051;-6.372;106.786;2023-08-20T07:44:25;35.00;61.10
31003;DHT22;23051;-6.372;106.786;2023-08-20T07:46:26;35.10;61.00
31003;DHT22;23051;-6.372;106.786;2023-08-20T07:48:27;35.20;60.80
31003;DHT22;23051;-6.372;106.786;2023-08-20T07:50:28;35.30;60.50
31003;DHT22;23051;-6.372;106.786;2023-08-20T07:52:38;35.40;60.40
31003;DHT22;23051;-6.372;106.786;2023-08-20T07:54:48;35.40;60.30
31003;DHT22;23051;-6.372;106.786;2023-08-20T07:56:55;35.40;60.30
31003;DHT22;23051;-6.372;106.786;2023-08-20T07:59:05;35.30;60.30
31003;DHT22;23051;-6.372;106.786;2023-08-20T08:01:06;35.30;60.50
31003;DHT22;23051;-6.372;106.786;2023-08-20T08:05:34;35.20;60.80
31003;DHT22;23051;-6.372;106.786;2023-08-20T08:17:38;34.30;62.50
31003;DHT22;23051;-6.372;106.786;2023-08-20T08:22:01;34.80;61.60
31003;DHT22;23051;-6.372;106.786;2023-08-20T08:27:05;34.90;61.30
31003;DHT22;23051;-6.372;106.786;2023-08-20T08:37:29;34.80;61.50
31003;DHT22;23051;-6.372;106.786;2023-08-20T08:44:54;34.40;62.10
31003;DHT22;23051;-6.372;106.786;2023-08-20T08:46:55;34.40;62.50
31003;DHT22;23051;-6.372;106.786;2023-08-20T08:48:57;34.20;62.50
31003;DHT22;23051;-6.372;106.786;2023-08-20T08:50:58;34.10;62.90
31003;DHT22;23051;-6.372;106.786;2023-08-20T09:00:01;33.80;63.50
31003;DHT22;23051;-6.372;106.786;2023-08-20T09:02:23;33.70;63.60
31003;DHT22;23051;-6.372;106.786;2023-08-20T09:04:24;33.50;63.90
31003;DHT22;23051;-6.372;106.786;2023-08-20T09:06:29;33.50;64.20
31003;DHT22;23051;-6.372;106.786;2023-08-20T09:08:44;33.50;64.10
31003;DHT22;23051;-6.372;106.786;2023-08-20T09:10:52;33.70;64.10
31003;DHT22;23051;-6.372;106.786;2023-08-20T09:12:54;33.80;63.60
31003;DHT22;23051;-6.372;106.786;2023-08-20T09:14:58;33.90;63.20
31003;DHT22;23051;-6.372;106.786;2023-08-20T09:17:01;34.10;62.80
31003;DHT22;23051;-6.372;106.786;2023-08-20T09:19:05;34.30;62.40
31003;DHT22;23051;-6.372;106.786;2023-08-20T09:21:08;34.40;62.20
31003;DHT22;23051;-6.372;106.786;2023-08-20T09:23:11;34.40;62.10
31003;DHT22;23051;-6.372;106.786;2023-08-20T09:25:15;34.30;62.10
31003;DHT22;23051;-6.372;106.786;2023-08-20T09:27:17;34.10;62.40
31003;DHT22;23051;-6.372;106.786;2023-08-20T09:29:18;34.10;62.90
31003;DHT22;23051;-6.372;106.786;2023-08-20T09:31:37;34.00;62.90
31003;DHT22;23051;-6.372;106.786;2023-08-20T09:37:45;33.90;63.10
31003;DHT22;23051;-6.372;106.786;2023-08-20T09:39:46;33.80;63.30
31003;DHT22;23051;-6.372;106.786;2023-08-20T09:41:50;33.80;63.40
31003;DHT22;23051;-6.372;106.786;2023-08-20T09:43:55;33.80;63.50
31003;DHT22;23051;-6.372;106.786;2023-08-20T09:46:05;33.80;63.40
31003;DHT22;23051;-6.372;106.786;2023-08-20T09:48:09;33.70;63.40
31003;DHT22;23051;-6.372;106.786;2023-08-20T09:50:10;33.70;63.50
31003;DHT22;23051;-6.372;106.786;2023-08-20T09:52:21;33.60;63.70
31003;DHT22;23051;-6.372;106.786;2023-08-20T09:54:28;33.50;63.90
31003;DHT22;23051;-6.372;106.786;2023-08-20T09:56:34;33.50;64.10
31003;DHT22;23051;-6.372;106.786;2023-08-20T09:58:45;33.50;63.90
31003;DHT22;23051;-6.372;106.786;2023-08-20T10:00:49;33.50;63.70
31003;DHT22;23051;-6.372;106.786;2023-08-20T10:02:54;33.50;63.90
31003;DHT22;23051;-6.372;106.786;2023-08-20T10:07:44;33.40;64.00
31003;DHT22;23051;-6.372;106.786;2023-08-20T10:09:49;33.40;64.10
31003;DHT22;23051;-6.372;106.786;2023-08-20T10:17:17;33.40;63.90
31003;DHT22;23051;-6.372;106.786;2023-08-20T10:19:19;33.50;63.80
31003;DHT22;23051;-6.372;106.786;2023-08-20T10:23:54;33.50;63.70
31003;DHT22;23051;-6.372;106.786;2023-08-20T10:25:55;33.20;64.00
31003;DHT22;23051;-6.372;106.786;2023-08-20T10:30:35;32.80;65.30
31003;DHT22;23051;-6.372;106.786;2023-08-20T10:34:36;32.40;66.10
31003;DHT22;23051;-6.372;106.786;2023-08-20T10:36:41;32.20;67.30
31003;DHT22;23051;-6.372;106.786;2023-08-20T10:38:44;32.10;66.80
31003;DHT22;23051;-6.372;106.786;2023-08-20T10:43:01;32.00;66.90
31003;DHT22;23051;-6.372;106.786;2023-08-20T10:45:16;31.90;67.00
31003;DHT22;23051;-6.372;106.786;2023-08-20T10:47:17;31.80;67.20
31003;DHT22;23051;-6.372;106.786;2023-08-20T10:49:19;31.70;67.40
31003;DHT22;23051;-6.372;106.786;2023-08-20T10:51:24;31.70;67.30
31003;DHT22;23051;-6.372;106.786;2023-08-20T10:53:42;31.80;67.20
31003;DHT22;23051;-6.372;106.786;2023-08-20T10:55:48;31.80;67.00
31003;DHT22;23051;-6.372;106.786;2023-08-20T10:57:54;31.80;67.00
31003;DHT22;23051;-6.372;106.786;2023-08-20T10:59:57;31.80;67.00
31003;DHT22;23051;-6.372;106.786;2023-08-20T11:01:59;32.00;66.50
31003;DHT22;23051;-6.372;106.786;2023-08-20T11:04:01;32.20;66.20
31003;DHT22;23051;-6.372;106.786;2023-08-20T11:06:07;32.40;65.60
31003;DHT22;23051;-6.372;106.786;2023-08-20T11:08:08;32.70;65.10
31003;DHT22;23051;-6.372;106.786;2023-08-20T11:10:13;32.90;64.50
31003;DHT22;23051;-6.372;106.786;2023-08-20T11:12:15;33.10;64.00
31003;DHT22;23051;-6.372;106.786;2023-08-20T11:14:17;33.20;63.70
31003;DHT22;23051;-6.372;106.786;2023-08-20T11:16:18;33.30;63.50
31003;DHT22;23051;-6.372;106.786;2023-08-20T11:18:20;33.40;63.30
31003;DHT22;23051;-6.372;106.786;2023-08-20T11:20:21;33.30;63.10
31003;DHT22;23051;-6.372;106.786;2023-08-20T11:22:43;33.40;63.30
31003;DHT22;23051;-6.372;106.786;2023-08-20T11:24:46;33.40;63.20
31003;DHT22;23051;-6.372;106.786;2023-08-20T11:26:48;33.40;63.20
31003;DHT22;23051;-6.372;106.786;2023-08-20T11:28:49;33.40;63.10
31003;DHT22;23051;-6.372;106.786;2023-08-20T11:33:04;33.20;63.60
31003;DHT22;23051;-6.372;106.786;2023-08-20T11:35:07;33.20;63.70
31003;DHT22;23051;-6.372;106.786;2023-08-20T11:37:08;33.10;63.70
31003;DHT22;23051;-6.372;106.786;2023-08-20T11:39:10;33.10;63.60
31003;DHT22;23051;-6.372;106.786;2023-08-20T11:41:14;33.20;63.60
31003;DHT22;23051;-6.372;106.786;2023-08-20T11:43:15;33.20;63.50
31003;DHT22;23051;-6.372;106.786;2023-08-20T11:45:17;33.30;63.40
31003;DHT22;23051;-6.372;106.786;2023-08-20T11:47:18;33.30;63.30
31003;DHT22;23051;-6.372;106.786;2023-08-20T11:49:26;33.30;63.40
31003;DHT22;23051;-6.372;106.786;2023-08-20T11:51:28;33.30;63.40
31003;DHT22;23051;-6.372;106.786;2023-08-20T11:53:29;33.30;63.40
31003;DHT22;23051;-6.372;106.786;2023-08-20T11:55:30;33.30;63.40
31003;DHT22;23051;-6.372;106.786;2023-08-20T11:57:31;33.30;63.30
31003;DHT22;23051;-6.372;106.786;2023-08-20T11:59:33;33.30;63.30
31003;DHT22;23051;-6.372;106.786;2023-08-20T12:01:35;33.30;63.30
31003;DHT22;23051;-6.372;106.786;2023-08-20T12:03:37;33.30;63.50
31003;DHT22;23051;-6.372;106.786;2023-08-20T12:05:40;33.30;63.60
31003;DHT22;23051;-6.372;106.786;2023-08-20T12:07:42;33.30;63.50
31003;DHT22;23051;-6.372;106.786;2023-08-20T12:09:43;33.30;63.50
31003;DHT22;23051;-6.372;106.786;2023-08-20T12:11:48;33.20;63.50
31003;DHT22;23051;-6.372;106.786;2023-08-20T12:13:49;33.00;63.80
31003;DHT22;23051;-6.372;106.786;2023-08-20T12:15:50;32.80;64.20
31003;DHT22;23051;-6.372;106.786;2023-08-20T12:19:55;32.40;65.20
31003;DHT22;23051;-6.372;106.786;2023-08-20T12:21:56;32.20;65.60
31003;DHT22;23051;-6.372;106.786;2023-08-20T12:23:57;32.10;65.90
31003;DHT22;23051;-6.372;106.786;2023-08-20T12:25:59;31.90;66.20
31003;DHT22;23051;-6.372;106.786;2023-08-20T12:28:00;31.80;66.50
31003;DHT22;23051;-6.372;106.786;2023-08-20T12:30:09;31.70;66.70
31003;DHT22;23051;-6.372;106.786;2023-08-20T12:32:19;31.60;66.90
31003;DHT22;23051;-6.372;106.786;2023-08-20T12:34:21;31.60;66.90
31003;DHT22;23051;-6.372;106.786;2023-08-20T12:36:22;31.80;66.60
31003;DHT22;23051;-6.372;106.786;2023-08-20T12:38:23;32.00;66.10
31003;DHT22;23051;-6.372;106.786;2023-08-20T12:40:24;32.20;65.60
31003;DHT22;23051;-6.372;106.786;2023-08-20T12:42:25;32.30;65.30
31003;DHT22;23051;-6.372;106.786;2023-08-20T12:44:30;32.40;65.00
31003;DHT22;23051;-6.372;106.786;2023-08-20T12:46:31;32.50;64.80
31003;DHT22;23051;-6.372;106.786;2023-08-20T12:48:33;32.60;64.60
31003;DHT22;23051;-6.372;106.786;2023-08-20T12:50:34;32.60;64.40
31003;DHT22;23051;-6.372;106.786;2023-08-20T12:52:35;32.70;64.30
31003;DHT22;23051;-6.372;106.786;2023-08-20T12:54:39;32.80;64.10
31003;DHT22;23051;-6.372;106.786;2023-08-20T12:56:41;32.80;64.00
31003;DHT22;23051;-6.372;106.786;2023-08-20T12:58:52;32.80;64.10
31003;DHT22;23051;-6.372;106.786;2023-08-20T13:00:56;32.80;64.00
31003;DHT22;23051;-6.372;106.786;2023-08-20T13:02:57;32.80;64.00
31003;DHT22;23051;-6.372;106.786;2023-08-20T13:04:58;32.80;64.00
31003;DHT22;23051;-6.372;106.786;2023-08-20T13:07:00;32.80;64.00
31003;DHT22;23051;-6.372;106.786;2023-08-20T13:11:13;32.80;63.90
31003;DHT22;23051;-6.372;106.786;2023-08-20T13:13:14;32.80;64.80
31003;DHT22;23051;-6.372;106.786;2023-08-20T13:15:16;32.80;63.90
31003;DHT22;23051;-6.372;106.786;2023-08-20T13:17:18;32.80;63.90
31003;DHT22;23051;-6.372;106.786;2023-08-20T13:19:22;32.80;63.90
31003;DHT22;23051;-6.372;106.786;2023-08-20T13:21:26;32.80;63.90
31003;DHT22;23051;-6.372;106.786;2023-08-20T13:23:27;32.80;63.90
31003;DHT22;23051;-6.372;106.786;2023-08-20T13:25:36;32.80;63.90
31003;DHT22;23051;-6.372;106.786;2023-08-20T13:27:38;32.80;63.90
31003;DHT22;23051;-6.372;106.786;2023-08-20T13:32:12;32.80;63.80
31003;DHT22;23051;-6.372;106.786;2023-08-20T13:34:13;33.00;63.70
31003;DHT22;23051;-6.372;106.786;2023-08-20T13:36:15;33.00;63.60
31003;DHT22;23051;-6.372;106.786;2023-08-20T13:38:16;33.00;63.60
31003;DHT22;23051;-6.372;106.786;2023-08-20T13:40:32;33.00;63.50
31003;DHT22;23051;-6.372;106.786;2023-08-20T13:42:33;33.00;63.50
31003;DHT22;23051;-6.372;106.786;2023-08-20T13:44:35;33.00;63.60
31003;DHT22;23051;-6.372;106.786;2023-08-20T13:46:36;33.00;63.60
31003;DHT22;23051;-6.372;106.786;2023-08-20T13:48:37;33.00;63.50
31003;DHT22;23051;-6.372;106.786;2023-08-20T13:50:38;33.00;63.50
31003;DHT22;23051;-6.372;106.786;2023-08-20T13:52:39;33.00;63.40
31003;DHT22;23051;-6.372;106.786;2023-08-20T13:54:41;33.10;63.50
31003;DHT22;23051;-6.372;106.786;2023-08-20T13:56:45;33.00;63.50
31003;DHT22;23051;-6.372;106.786;2023-08-20T13:58:46;33.00;63.50
31003;DHT22;23051;-6.372;106.786;2023-08-20T14:00:48;33.10;63.50
31003;DHT22;23051;-6.372;106.786;2023-08-20T14:02:49;33.00;63.50